sensor_id;sensor_type;location;lat;lon;timestamp;temperature;humidity
28460;DHT22;32528;45.712;9.192;2023-06-14T00:01:50;21.30;99.90
28460;DHT22;32528;45.712;9.192;2023-06-14T00:03:51;21.30;99.90
28460;DHT22;32528;45.712;9.192;2023-06-14T00:05:52;21.30;99.90
28460;DHT22;32528;45.712;9.192;2023-06-14T00:07:53;21.30;99.90
28460;DHT22;32528;45.712;9.192;2023-06-14T00:09:53;21.30;99.90
28460;DHT22;32528;45.712;9.192;2023-06-14T00:11:54;21.20;99.90
28460;DHT22;32528;45.712;9.192;2023-06-14T00:13:55;21.10;99.90
28460;DHT22;32528;45.712;9.192;2023-06-14T00:15:56;21.10;99.90
28460;DHT22;32528;45.712;9.192;2023-06-14T00:17:57;20.90;99.90
28460;DHT22;32528;45.712;9.192;2023-06-14T00:20:02;20.90;99.90
28460;DHT22;32528;45.712;9.192;2023-06-14T00:22:03;20.70;99.90
28460;DHT22;32528;45.712;9.192;2023-06-14T00:24:04;20.50;99.90
28460;DHT22;32528;45.712;9.192;2023-06-14T00:26:05;20.40;99.90
28460;DHT22;32528;45.712;9.192;2023-06-14T00:28:06;20.30;99.90
28460;DHT22;32528;45.712;9.192;2023-06-14T00:30:06;20.20;99.90
28460;DHT22;32528;45.712;9.192;2023-06-14T00:32:07;20.10;99.90
28460;DHT22;32528;45.712;9.192;2023-06-14T00:34:08;20.10;99.90
28460;DHT22;32528;45.712;9.192;2023-06-14T00:36:10;19.90;99.90
28460;DHT22;32528;45.712;9.192;2023-06-14T00:38:10;19.90;99.90
28460;DHT22;32528;45.712;9.192;2023-06-14T00:40:11;19.70;99.90
28460;DHT22;32528;45.712;9.192;2023-06-14T00:42:22;19.70;99.90
28460;DHT22;32528;45.712;9.192;2023-06-14T00:44:23;19.60;99.90
28460;DHT22;32528;45.712;9.192;2023-06-14T00:46:24;19.60;99.90
28460;DHT22;32528;45.712;9.192;2023-06-14T00:48:26;19.50;99.90
28460;DHT22;32528;45.712;9.192;2023-06-14T00:50:27;19.60;99.90
28460;DHT22;32528;45.712;9.192;2023-06-14T00:52:27;19.60;99.90
28460;DHT22;32528;45.712;9.192;2023-06-14T00:54:31;19.60;99.90
28460;DHT22;32528;45.712;9.192;2023-06-14T00:56:32;19.60;99.90
28460;DHT22;32528;45.712;9.192;2023-06-14T00:58:33;19.60;99.90
28460;DHT22;32528;45.712;9.192;2023-06-14T01:00:33;19.70;99.90
28460;DHT22;32528;45.712;9.192;2023-06-14T01:02:35;19.60;99.90
28460;DHT22;32528;45.712;9.192;2023-06-14T01:04:37;19.70;99.90
28460;DHT22;32528;45.712;9.192;2023-06-14T01:15:01;19.50;99.90
28460;DHT22;32528;45.712;9.192;2023-06-14T01:17:02;19.60;99.90
28460;DHT22;32528;45.712;9.192;2023-06-14T01:19:03;19.50;99.90
28460;DHT22;32528;45.712;9.192;2023-06-14T01:21:06;19.50;99.90
28460;DHT22;32528;45.712;9.192;2023-06-14T01:23:06;19.40;99.90
28460;DHT22;32528;45.712;9.192;2023-06-14T01:25:07;19.40;99.90
28460;DHT22;32528;45.712;9.192;2023-06-14T01:27:08;19.40;99.90
28460;DHT22;32528;45.712;9.192;2023-06-14T01:29:09;19.40;99.90
28460;DHT22;32528;45.712;9.192;2023-06-14T01:31:11;19.40;99.90
28460;DHT22;32528;45.712;9.192;2023-06-14T01:33:13;19.40;99.90
28460;DHT22;32528;45.712;9.192;2023-06-14T01:35:14;19.40;99.90
28460;DHT22;32528;45.712;9.192;2023-06-14T01:37:15;19.50;99.90
28460;DHT22;32528;45.712;9.192;2023-06-14T01:39:16;19.50;99.90
28460;DHT22;32528;45.712;9.192;2023-06-14T01:41:17;19.40;99.90
28460;DHT22;32528;45.712;9.192;2023-06-14T01:43:18;19.40;99.90
28460;DHT22;32528;45.712;9.192;2023-06-14T01:45:20;19.40;99.90
28460;DHT22;32528;45.712;9.192;2023-06-14T01:47:22;19.40;99.90
28460;DHT22;32528;45.712;9.192;2023-06-14T01:49:22;19.40;99.90
28460;DHT22;32528;45.712;9.192;2023-06-14T01:51:23;19.40;99.90
28460;DHT22;32528;45.712;9.192;2023-06-14T01:53:24;19.40;99.90
28460;DHT22;32528;45.712;9.192;2023-06-14T01:55:24;19.40;99.90
28460;DHT22;32528;45.712;9.192;2023-06-14T01:57:25;19.40;99.90
28460;DHT22;32528;45.712;9.192;2023-06-14T01:59:27;19.40;99.90
28460;DHT22;32528;45.712;9.192;2023-06-14T02:01:28;19.40;99.90
28460;DHT22;32528;45.712;9.192;2023-06-14T02:03:29;19.30;99.90
28460;DHT22;32528;45.712;9.192;2023-06-14T02:05:30;19.30;99.90
28460;DHT22;32528;45.712;9.192;2023-06-14T02:07:31;19.30;99.90
28460;DHT22;32528;45.712;9.192;2023-06-14T02:09:31;19.30;99.90
28460;DHT22;32528;45.712;9.192;2023-06-14T02:11:32;19.20;99.90
28460;DHT22;32528;45.712;9.192;2023-06-14T02:13:33;19.20;99.90
28460;DHT22;32528;45.712;9.192;2023-06-14T02:15:34;19.10;99.90
28460;DHT22;32528;45.712;9.192;2023-06-14T02:17:35;19.10;99.90
28460;DHT22;32528;45.712;9.192;2023-06-14T02:19:40;19.00;99.90
28460;DHT22;32528;45.712;9.192;2023-06-14T02:21:41;19.10;99.90
28460;DHT22;32528;45.712;9.192;2023-06-14T02:23:41;19.10;99.90
28460;DHT22;32528;45.712;9.192;2023-06-14T02:25:42;19.10;99.90
28460;DHT22;32528;45.712;9.192;2023-06-14T02:27:45;19.10;99.90
28460;DHT22;32528;45.712;9.192;2023-06-14T02:29:46;19.10;99.90
28460;DHT22;32528;45.712;9.192;2023-06-14T02:31:46;19.00;99.90
28460;DHT22;32528;45.712;9.192;2023-06-14T02:33:48;19.00;99.90
28460;DHT22;32528;45.712;9.192;2023-06-14T02:35:49;18.90;99.90
28460;DHT22;32528;45.712;9.192;2023-06-14T02:37:50;18.90;99.90
28460;DHT22;32528;45.712;9.192;2023-06-14T02:39:51;18.80;99.90
28460;DHT22;32528;45.712;9.192;2023-06-14T02:41:52;18.80;99.90
28460;DHT22;32528;45.712;9.192;2023-06-14T02:43:52;18.70;99.90
28460;DHT22;32528;45.712;9.192;2023-06-14T02:45:54;18.70;99.90
28460;DHT22;32528;45.712;9.192;2023-06-14T02:47:55;18.60;99.90
28460;DHT22;32528;45.712;9.192;2023-06-14T02:49:57;18.70;99.90
28460;DHT22;32528;45.712;9.192;2023-06-14T02:51:57;18.60;99.90
28460;DHT22;32528;45.712;9.192;2023-06-14T02:53:58;18.60;99.90
28460;DHT22;32528;45.712;9.192;2023-06-14T02:55:59;18.60;99.90
28460;DHT22;32528;45.712;9.192;2023-06-14T02:58:00;18.60;99.90
28460;DHT22;32528;45.712;9.192;2023-06-14T03:00:00;18.60;99.90
28460;DHT22;32528;45.712;9.192;2023-06-14T03:02:02;18.60;99.90
28460;DHT22;32528;45.712;9.192;2023-06-14T03:04:04;18.60;99.90
28460;DHT22;32528;45.712;9.192;2023-06-14T03:06:09;18.60;99.90
28460;DHT22;32528;45.712;9.192;2023-06-14T03:08:17;18.60;99.90
28460;DHT22;32528;45.712;9.192;2023-06-14T03:10:21;18.70;99.90
28460;DHT22;32528;45.712;9.192;2023-06-14T03:12:23;18.60;99.90
28460;DHT22;32528;45.712;9.192;2023-06-14T03:14:24;18.70;99.90
28460;DHT22;32528;45.712;9.192;2023-06-14T03:16:25;18.70;99.90
28460;DHT22;32528;45.712;9.192;2023-06-14T03:18:26;18.70;99.90
28460;DHT22;32528;45.712;9.192;2023-06-14T03:20:27;18.80;99.90
28460;DHT22;32528;45.712;9.192;2023-06-14T03:22:30;18.80;99.90
28460;DHT22;32528;45.712;9.192;2023-06-14T03:24:33;18.80;99.90
28460;DHT22;32528;45.712;9.192;2023-06-14T03:26:40;18.80;99.90
28460;DHT22;32528;45.712;9.192;2023-06-14T03:28:41;18.80;99.90
28460;DHT22;32528;45.712;9.192;2023-06-14T03:30:42;18.80;99.90
28460;DHT22;32528;45.712;9.192;2023-06-14T03:32:43;18.80;99.90
28460;DHT22;32528;45.712;9.192;2023-06-14T03:34:44;18.80;99.90
28460;DHT22;32528;45.712;9.192;2023-06-14T03:36:50;18.80;99.90
28460;DHT22;32528;45.712;9.192;2023-06-14T03:38:51;18.70;99.90
28460;DHT22;32528;45.712;9.192;2023-06-14T03:40:52;18.70;99.90
28460;DHT22;32528;45.712;9.192;2023-06-14T03:42:55;18.80;99.90
28460;DHT22;32528;45.712;9.192;2023-06-14T03:44:56;18.80;99.90
28460;DHT22;32528;45.712;9.192;2023-06-14T03:46:57;18.80;99.90
28460;DHT22;32528;45.712;9.192;2023-06-14T03:49:00;18.80;99.90
28460;DHT22;32528;45.712;9.192;2023-06-14T03:51:01;18.80;99.90
28460;DHT22;32528;45.712;9.192;2023-06-14T03:53:03;18.80;99.90
28460;DHT22;32528;45.712;9.192;2023-06-14T03:55:06;18.90;99.90
28460;DHT22;32528;45.712;9.192;2023-06-14T03:57:07;18.90;99.90
28460;DHT22;32528;45.712;9.192;2023-06-14T03:59:08;19.00;99.90
28460;DHT22;32528;45.712;9.192;2023-06-14T04:01:09;19.00;99.90
28460;DHT22;32528;45.712;9.192;2023-06-14T04:03:10;19.10;99.90
28460;DHT22;32528;45.712;9.192;2023-06-14T04:05:13;19.00;99.90
28460;DHT22;32528;45.712;9.192;2023-06-14T04:07:19;19.00;99.90
28460;DHT22;32528;45.712;9.192;2023-06-14T04:09:20;19.00;99.90
28460;DHT22;32528;45.712;9.192;2023-06-14T04:11:21;19.00;99.90
28460;DHT22;32528;45.712;9.192;2023-06-14T04:13:22;19.00;99.90
28460;DHT22;32528;45.712;9.192;2023-06-14T04:15:22;19.00;99.90
28460;DHT22;32528;45.712;9.192;2023-06-14T04:17:26;19.00;99.90
28460;DHT22;32528;45.712;9.192;2023-06-14T04:19:28;19.00;99.90
28460;DHT22;32528;45.712;9.192;2023-06-14T04:21:28;19.00;99.90
28460;DHT22;32528;45.712;9.192;2023-06-14T04:23:32;18.90;99.90
28460;DHT22;32528;45.712;9.192;2023-06-14T04:25:34;18.90;99.90
28460;DHT22;32528;45.712;9.192;2023-06-14T04:27:35;18.90;99.90
28460;DHT22;32528;45.712;9.192;2023-06-14T04:29:37;18.90;99.90
28460;DHT22;32528;45.712;9.192;2023-06-14T04:31:45;18.80;99.90
28460;DHT22;32528;45.712;9.192;2023-06-14T04:33:48;18.80;99.90
28460;DHT22;32528;45.712;9.192;2023-06-14T04:35:54;18.80;99.90
28460;DHT22;32528;45.712;9.192;2023-06-14T04:37:55;18.90;99.90
28460;DHT22;32528;45.712;9.192;2023-06-14T04:39:58;18.90;99.90
28460;DHT22;32528;45.712;9.192;2023-06-14T04:41:59;18.90;99.90
28460;DHT22;32528;45.712;9.192;2023-06-14T04:44:02;18.90;99.90
28460;DHT22;32528;45.712;9.192;2023-06-14T04:46:05;18.90;99.90
28460;DHT22;32528;45.712;9.192;2023-06-14T04:48:12;19.00;99.90
28460;DHT22;32528;45.712;9.192;2023-06-14T04:50:12;19.00;99.90
28460;DHT22;32528;45.712;9.192;2023-06-14T04:52:14;19.00;99.90
28460;DHT22;32528;45.712;9.192;2023-06-14T04:54:17;19.00;99.90
28460;DHT22;32528;45.712;9.192;2023-06-14T04:56:20;19.00;99.90
28460;DHT22;32528;45.712;9.192;2023-06-14T04:58:22;19.00;99.90
28460;DHT22;32528;45.712;9.192;2023-06-14T05:00:23;19.10;99.90
28460;DHT22;32528;45.712;9.192;2023-06-14T05:02:24;19.10;99.90
28460;DHT22;32528;45.712;9.192;2023-06-14T05:04:26;19.10;99.90
28460;DHT22;32528;45.712;9.192;2023-06-14T05:06:28;19.20;99.90
28460;DHT22;32528;45.712;9.192;2023-06-14T05:08:29;19.10;99.90
28460;DHT22;32528;45.712;9.192;2023-06-14T05:10:30;19.20;99.90
28460;DHT22;32528;45.712;9.192;2023-06-14T05:12:30;19.20;99.90
28460;DHT22;32528;45.712;9.192;2023-06-14T05:14:32;19.20;99.90
28460;DHT22;32528;45.712;9.192;2023-06-14T05:16:33;19.30;99.90
28460;DHT22;32528;45.712;9.192;2023-06-14T05:18:33;19.30;99.90
28460;DHT22;32528;45.712;9.192;2023-06-14T05:20:36;19.40;99.90
28460;DHT22;32528;45.712;9.192;2023-06-14T05:22:37;19.40;99.90
28460;DHT22;32528;45.712;9.192;2023-06-14T05:24:38;19.50;99.90
28460;DHT22;32528;45.712;9.192;2023-06-14T05:26:38;19.60;99.90
28460;DHT22;32528;45.712;9.192;2023-06-14T05:28:40;19.60;99.90
28460;DHT22;32528;45.712;9.192;2023-06-14T05:30:40;19.60;99.90
28460;DHT22;32528;45.712;9.192;2023-06-14T05:32:41;19.60;99.90
28460;DHT22;32528;45.712;9.192;2023-06-14T05:34:42;19.60;99.90
28460;DHT22;32528;45.712;9.192;2023-06-14T05:36:44;19.70;99.90
28460;DHT22;32528;45.712;9.192;2023-06-14T05:38:45;19.70;99.90
28460;DHT22;32528;45.712;9.192;2023-06-14T05:40:46;19.80;99.90
28460;DHT22;32528;45.712;9.192;2023-06-14T05:42:46;19.90;99.90
28460;DHT22;32528;45.712;9.192;2023-06-14T05:44:48;19.90;99.90
28460;DHT22;32528;45.712;9.192;2023-06-14T05:46:48;20.00;99.90
28460;DHT22;32528;45.712;9.192;2023-06-14T05:48:49;20.10;99.90
28460;DHT22;32528;45.712;9.192;2023-06-14T05:50:49;20.30;99.90
28460;DHT22;32528;45.712;9.192;2023-06-14T05:52:53;20.30;99.90
28460;DHT22;32528;45.712;9.192;2023-06-14T05:54:54;20.40;99.90
28460;DHT22;32528;45.712;9.192;2023-06-14T05:56:55;20.40;99.90
28460;DHT22;32528;45.712;9.192;2023-06-14T05:58:56;20.60;99.90
28460;DHT22;32528;45.712;9.192;2023-06-14T06:00:58;20.70;99.90
28460;DHT22;32528;45.712;9.192;2023-06-14T06:02:59;20.80;99.90
28460;DHT22;32528;45.712;9.192;2023-06-14T06:05:01;20.90;99.90
28460;DHT22;32528;45.712;9.192;2023-06-14T06:07:02;21.10;99.90
28460;DHT22;32528;45.712;9.192;2023-06-14T06:09:04;21.30;99.90
28460;DHT22;32528;45.712;9.192;2023-06-14T06:11:05;21.30;99.90
28460;DHT22;32528;45.712;9.192;2023-06-14T06:13:05;21.40;99.90
28460;DHT22;32528;45.712;9.192;2023-06-14T06:15:06;21.50;99.90
28460;DHT22;32528;45.712;9.192;2023-06-14T06:17:08;21.50;99.90
28460;DHT22;32528;45.712;9.192;2023-06-14T06:19:08;21.40;99.90
28460;DHT22;32528;45.712;9.192;2023-06-14T06:21:09;21.40;99.90
28460;DHT22;32528;45.712;9.192;2023-06-14T06:23:09;21.40;99.90
28460;DHT22;32528;45.712;9.192;2023-06-14T06:25:10;21.30;99.90
28460;DHT22;32528;45.712;9.192;2023-06-14T06:27:11;21.40;99.90
28460;DHT22;32528;45.712;9.192;2023-06-14T06:29:13;21.50;99.90
28460;DHT22;32528;45.712;9.192;2023-06-14T06:31:14;21.60;99.90
28460;DHT22;32528;45.712;9.192;2023-06-14T06:33:16;21.70;99.90
28460;DHT22;32528;45.712;9.192;2023-06-14T06:35:17;21.70;99.90
28460;DHT22;32528;45.712;9.192;2023-06-14T06:37:19;21.90;99.90
28460;DHT22;32528;45.712;9.192;2023-06-14T06:39:19;22.00;99.90
28460;DHT22;32528;45.712;9.192;2023-06-14T06:41:20;22.10;99.90
28460;DHT22;32528;45.712;9.192;2023-06-14T06:43:21;22.10;99.90
28460;DHT22;32528;45.712;9.192;2023-06-14T06:45:22;22.10;99.90
28460;DHT22;32528;45.712;9.192;2023-06-14T06:47:23;22.10;99.90
28460;DHT22;32528;45.712;9.192;2023-06-14T06:49:25;22.10;99.90
28460;DHT22;32528;45.712;9.192;2023-06-14T06:51:26;22.10;99.90
28460;DHT22;32528;45.712;9.192;2023-06-14T06:53:26;22.10;99.90
28460;DHT22;32528;45.712;9.192;2023-06-14T06:55:27;22.10;99.90
28460;DHT22;32528;45.712;9.192;2023-06-14T06:57:28;22.20;99.90
28460;DHT22;32528;45.712;9.192;2023-06-14T06:59:29;22.30;99.90
28460;DHT22;32528;45.712;9.192;2023-06-14T07:01:30;22.40;99.90
28460;DHT22;32528;45.712;9.192;2023-06-14T07:03:34;22.40;99.90
28460;DHT22;32528;45.712;9.192;2023-06-14T07:05:34;22.40;99.90
28460;DHT22;32528;45.712;9.192;2023-06-14T07:07:35;22.40;99.90
28460;DHT22;32528;45.712;9.192;2023-06-14T07:09:36;22.30;99.90
28460;DHT22;32528;45.712;9.192;2023-06-14T07:11:37;22.30;99.90
28460;DHT22;32528;45.712;9.192;2023-06-14T07:13:38;22.30;99.90
28460;DHT22;32528;45.712;9.192;2023-06-14T07:15:38;22.20;99.90
28460;DHT22;32528;45.712;9.192;2023-06-14T07:17:39;22.30;99.90
28460;DHT22;32528;45.712;9.192;2023-06-14T07:19:40;22.30;99.90
28460;DHT22;32528;45.712;9.192;2023-06-14T07:21:43;22.30;99.90
28460;DHT22;32528;45.712;9.192;2023-06-14T07:23:44;22.40;99.90
28460;DHT22;32528;45.712;9.192;2023-06-14T07:25:45;22.50;99.90
28460;DHT22;32528;45.712;9.192;2023-06-14T07:27:46;22.50;99.90
28460;DHT22;32528;45.712;9.192;2023-06-14T07:29:48;22.60;99.90
28460;DHT22;32528;45.712;9.192;2023-06-14T07:31:49;22.70;99.90
28460;DHT22;32528;45.712;9.192;2023-06-14T07:33:50;22.80;99.90
28460;DHT22;32528;45.712;9.192;2023-06-14T07:35:50;23.00;99.90
28460;DHT22;32528;45.712;9.192;2023-06-14T07:37:53;23.10;99.90
28460;DHT22;32528;45.712;9.192;2023-06-14T07:39:54;23.30;99.90
28460;DHT22;32528;45.712;9.192;2023-06-14T07:41:55;23.40;99.90
28460;DHT22;32528;45.712;9.192;2023-06-14T07:43:55;23.50;99.90
28460;DHT22;32528;45.712;9.192;2023-06-14T07:45:56;23.70;99.90
28460;DHT22;32528;45.712;9.192;2023-06-14T07:47:57;23.80;99.90
28460;DHT22;32528;45.712;9.192;2023-06-14T07:49:58;23.90;99.90
28460;DHT22;32528;45.712;9.192;2023-06-14T07:51:58;23.90;99.90
28460;DHT22;32528;45.712;9.192;2023-06-14T07:53:59;23.90;99.90
28460;DHT22;32528;45.712;9.192;2023-06-14T07:56:01;23.90;99.90
28460;DHT22;32528;45.712;9.192;2023-06-14T07:58:03;24.00;99.90
28460;DHT22;32528;45.712;9.192;2023-06-14T08:00:04;24.00;99.90
28460;DHT22;32528;45.712;9.192;2023-06-14T08:02:12;23.90;99.90
28460;DHT22;32528;45.712;9.192;2023-06-14T08:04:13;23.90;99.90
28460;DHT22;32528;45.712;9.192;2023-06-14T08:06:15;23.90;99.90
28460;DHT22;32528;45.712;9.192;2023-06-14T08:08:15;23.90;99.90
28460;DHT22;32528;45.712;9.192;2023-06-14T08:10:16;23.90;99.90
28460;DHT22;32528;45.712;9.192;2023-06-14T08:12:17;23.90;99.90
28460;DHT22;32528;45.712;9.192;2023-06-14T08:14:17;23.90;99.90
28460;DHT22;32528;45.712;9.192;2023-06-14T08:16:18;23.90;99.90
28460;DHT22;32528;45.712;9.192;2023-06-14T08:18:19;24.00;99.90
28460;DHT22;32528;45.712;9.192;2023-06-14T08:20:20;24.10;99.90
28460;DHT22;32528;45.712;9.192;2023-06-14T08:22:20;24.20;99.90
28460;DHT22;32528;45.712;9.192;2023-06-14T08:24:22;24.30;99.90
28460;DHT22;32528;45.712;9.192;2023-06-14T08:26:26;24.40;99.90
28460;DHT22;32528;45.712;9.192;2023-06-14T08:28:29;24.50;99.90
28460;DHT22;32528;45.712;9.192;2023-06-14T08:30:30;24.70;99.90
28460;DHT22;32528;45.712;9.192;2023-06-14T08:32:30;24.70;99.90
28460;DHT22;32528;45.712;9.192;2023-06-14T08:34:31;24.80;99.90
28460;DHT22;32528;45.712;9.192;2023-06-14T08:36:31;24.80;99.90
28460;DHT22;32528;45.712;9.192;2023-06-14T08:38:32;25.00;99.90
28460;DHT22;32528;45.712;9.192;2023-06-14T08:40:33;25.20;99.90
28460;DHT22;32528;45.712;9.192;2023-06-14T08:42:37;25.40;99.90
28460;DHT22;32528;45.712;9.192;2023-06-14T08:44:37;25.50;99.90
28460;DHT22;32528;45.712;9.192;2023-06-14T08:46:38;25.50;99.90
28460;DHT22;32528;45.712;9.192;2023-06-14T08:48:39;25.40;99.90
28460;DHT22;32528;45.712;9.192;2023-06-14T08:50:40;25.30;99.90
28460;DHT22;32528;45.712;9.192;2023-06-14T08:52:41;25.50;99.90
28460;DHT22;32528;45.712;9.192;2023-06-14T08:54:46;25.50;99.90
28460;DHT22;32528;45.712;9.192;2023-06-14T08:56:49;25.50;99.90
28460;DHT22;32528;45.712;9.192;2023-06-14T08:58:50;25.40;99.90
28460;DHT22;32528;45.712;9.192;2023-06-14T09:00:50;25.30;99.90
28460;DHT22;32528;45.712;9.192;2023-06-14T09:02:52;25.10;99.90
28460;DHT22;32528;45.712;9.192;2023-06-14T09:04:58;24.90;99.90
28460;DHT22;32528;45.712;9.192;2023-06-14T09:06:59;24.80;99.90
28460;DHT22;32528;45.712;9.192;2023-06-14T09:09:01;24.60;99.90
28460;DHT22;32528;45.712;9.192;2023-06-14T09:11:04;24.60;99.90
28460;DHT22;32528;45.712;9.192;2023-06-14T09:13:05;24.80;99.90
28460;DHT22;32528;45.712;9.192;2023-06-14T09:15:06;24.80;99.90
28460;DHT22;32528;45.712;9.192;2023-06-14T09:17:08;25.00;99.90
28460;DHT22;32528;45.712;9.192;2023-06-14T09:19:21;24.90;99.90
28460;DHT22;32528;45.712;9.192;2023-06-14T09:21:22;25.10;99.90
28460;DHT22;32528;45.712;9.192;2023-06-14T09:23:24;25.10;99.90
28460;DHT22;32528;45.712;9.192;2023-06-14T09:25:24;25.10;99.90
28460;DHT22;32528;45.712;9.192;2023-06-14T09:27:26;25.00;99.90
28460;DHT22;32528;45.712;9.192;2023-06-14T09:29:27;25.20;99.90
28460;DHT22;32528;45.712;9.192;2023-06-14T09:31:28;25.50;99.90
28460;DHT22;32528;45.712;9.192;2023-06-14T09:33:32;25.70;99.90
28460;DHT22;32528;45.712;9.192;2023-06-14T09:35:33;25.90;99.90
28460;DHT22;32528;45.712;9.192;2023-06-14T09:37:34;26.00;99.90
28460;DHT22;32528;45.712;9.192;2023-06-14T09:39:34;26.00;99.90
28460;DHT22;32528;45.712;9.192;2023-06-14T09:43:36;26.20;99.90
28460;DHT22;32528;45.712;9.192;2023-06-14T09:45:38;26.30;99.90
28460;DHT22;32528;45.712;9.192;2023-06-14T09:47:40;26.30;99.90
28460;DHT22;32528;45.712;9.192;2023-06-14T09:49:41;26.40;99.70
28460;DHT22;32528;45.712;9.192;2023-06-14T09:51:42;26.40;99.10
28460;DHT22;32528;45.712;9.192;2023-06-14T09:53:44;26.50;99.30
28460;DHT22;32528;45.712;9.192;2023-06-14T09:55:46;26.90;98.90
28460;DHT22;32528;45.712;9.192;2023-06-14T09:57:47;26.90;97.70
28460;DHT22;32528;45.712;9.192;2023-06-14T09:59:52;27.00;97.40
28460;DHT22;32528;45.712;9.192;2023-06-14T10:01:53;26.90;97.40
28460;DHT22;32528;45.712;9.192;2023-06-14T10:04:06;26.90;97.30
28460;DHT22;32528;45.712;9.192;2023-06-14T10:06:07;26.90;97.50
28460;DHT22;32528;45.712;9.192;2023-06-14T10:08:09;26.80;95.90
28460;DHT22;32528;45.712;9.192;2023-06-14T10:10:10;26.80;97.50
28460;DHT22;32528;45.712;9.192;2023-06-14T10:12:12;26.90;97.90
28460;DHT22;32528;45.712;9.192;2023-06-14T10:14:15;27.10;97.30
28460;DHT22;32528;45.712;9.192;2023-06-14T10:18:38;27.20;96.50
28460;DHT22;32528;45.712;9.192;2023-06-14T10:23:05;27.50;94.40
28460;DHT22;32528;45.712;9.192;2023-06-14T10:25:07;27.50;93.60
28460;DHT22;32528;45.712;9.192;2023-06-14T10:27:13;27.20;93.40
28460;DHT22;32528;45.712;9.192;2023-06-14T10:29:14;27.10;94.70
28460;DHT22;32528;45.712;9.192;2023-06-14T10:31:14;26.80;94.30
28460;DHT22;32528;45.712;9.192;2023-06-14T10:33:16;26.80;94.40
28460;DHT22;32528;45.712;9.192;2023-06-14T10:35:17;27.10;94.60
28460;DHT22;32528;45.712;9.192;2023-06-14T10:37:17;27.00;94.50
28460;DHT22;32528;45.712;9.192;2023-06-14T10:39:18;26.90;93.20
28460;DHT22;32528;45.712;9.192;2023-06-14T10:41:20;27.00;92.80
28460;DHT22;32528;45.712;9.192;2023-06-14T10:43:21;27.10;92.00
28460;DHT22;32528;45.712;9.192;2023-06-14T10:45:22;26.90;94.40
28460;DHT22;32528;45.712;9.192;2023-06-14T10:47:31;26.60;94.10
28460;DHT22;32528;45.712;9.192;2023-06-14T10:49:39;26.70;94.40
28460;DHT22;32528;45.712;9.192;2023-06-14T10:51:43;26.80;94.60
28460;DHT22;32528;45.712;9.192;2023-06-14T10:53:49;27.00;94.20
28460;DHT22;32528;45.712;9.192;2023-06-14T10:55:50;26.90;92.70
28460;DHT22;32528;45.712;9.192;2023-06-14T10:57:51;26.80;92.50
28460;DHT22;32528;45.712;9.192;2023-06-14T10:59:56;26.80;92.60
28460;DHT22;32528;45.712;9.192;2023-06-14T11:01:58;26.70;92.60
28460;DHT22;32528;45.712;9.192;2023-06-14T11:04:07;26.60;91.50
28460;DHT22;32528;45.712;9.192;2023-06-14T11:06:12;26.60;91.40
28460;DHT22;32528;45.712;9.192;2023-06-14T11:10:40;26.70;92.20
28460;DHT22;32528;45.712;9.192;2023-06-14T11:12:40;26.70;91.50
28460;DHT22;32528;45.712;9.192;2023-06-14T11:14:45;26.50;90.10
28460;DHT22;32528;45.712;9.192;2023-06-14T11:16:49;26.50;91.10
28460;DHT22;32528;45.712;9.192;2023-06-14T11:18:50;26.40;90.10
28460;DHT22;32528;45.712;9.192;2023-06-14T11:20:50;26.50;91.00
28460;DHT22;32528;45.712;9.192;2023-06-14T11:22:52;26.50;90.60
28460;DHT22;32528;45.712;9.192;2023-06-14T11:24:53;26.70;92.20
28460;DHT22;32528;45.712;9.192;2023-06-14T11:26:54;26.80;92.10
28460;DHT22;32528;45.712;9.192;2023-06-14T11:29:00;26.90;92.50
28460;DHT22;32528;45.712;9.192;2023-06-14T11:31:01;27.00;92.00
28460;DHT22;32528;45.712;9.192;2023-06-14T11:33:01;27.20;90.60
28460;DHT22;32528;45.712;9.192;2023-06-14T11:35:02;26.90;90.80
28460;DHT22;32528;45.712;9.192;2023-06-14T11:37:05;27.00;92.30
28460;DHT22;32528;45.712;9.192;2023-06-14T11:39:06;27.20;91.40
28460;DHT22;32528;45.712;9.192;2023-06-14T11:41:07;27.10;91.40
28460;DHT22;32528;45.712;9.192;2023-06-14T11:43:08;27.10;91.80
28460;DHT22;32528;45.712;9.192;2023-06-14T11:45:09;27.10;91.20
28460;DHT22;32528;45.712;9.192;2023-06-14T11:47:10;27.00;91.60
28460;DHT22;32528;45.712;9.192;2023-06-14T11:49:10;27.30;92.00
28460;DHT22;32528;45.712;9.192;2023-06-14T11:51:12;27.50;92.20
28460;DHT22;32528;45.712;9.192;2023-06-14T11:53:12;27.60;90.90
28460;DHT22;32528;45.712;9.192;2023-06-14T11:55:14;27.30;91.50
28460;DHT22;32528;45.712;9.192;2023-06-14T11:57:14;27.30;91.70
28460;DHT22;32528;45.712;9.192;2023-06-14T11:59:15;27.30;91.00
28460;DHT22;32528;45.712;9.192;2023-06-14T12:01:16;27.30;91.90
28460;DHT22;32528;45.712;9.192;2023-06-14T12:03:17;27.50;91.70
28460;DHT22;32528;45.712;9.192;2023-06-14T12:05:20;27.80;92.00
28460;DHT22;32528;45.712;9.192;2023-06-14T12:07:21;28.10;90.20
28460;DHT22;32528;45.712;9.192;2023-06-14T12:09:22;28.10;88.60
28460;DHT22;32528;45.712;9.192;2023-06-14T12:11:27;28.30;90.40
28460;DHT22;32528;45.712;9.192;2023-06-14T12:13:28;28.50;91.10
28460;DHT22;32528;45.712;9.192;2023-06-14T12:15:29;28.60;90.00
28460;DHT22;32528;45.712;9.192;2023-06-14T12:17:35;28.60;90.10
28460;DHT22;32528;45.712;9.192;2023-06-14T12:19:42;28.50;87.20
28460;DHT22;32528;45.712;9.192;2023-06-14T12:21:48;28.50;89.30
28460;DHT22;32528;45.712;9.192;2023-06-14T12:23:50;28.50;85.40
28460;DHT22;32528;45.712;9.192;2023-06-14T12:25:51;28.50;85.90
28460;DHT22;32528;45.712;9.192;2023-06-14T12:27:53;28.60;87.80
28460;DHT22;32528;45.712;9.192;2023-06-14T12:30:03;28.70;86.10
28460;DHT22;32528;45.712;9.192;2023-06-14T12:32:04;28.90;86.10
28460;DHT22;32528;45.712;9.192;2023-06-14T12:34:04;28.80;87.30
28460;DHT22;32528;45.712;9.192;2023-06-14T12:36:07;28.90;87.20
28460;DHT22;32528;45.712;9.192;2023-06-14T12:38:08;29.10;86.70
28460;DHT22;32528;45.712;9.192;2023-06-14T12:40:09;29.00;88.50
28460;DHT22;32528;45.712;9.192;2023-06-14T12:42:11;29.00;86.40
28460;DHT22;32528;45.712;9.192;2023-06-14T12:44:16;29.10;88.40
28460;DHT22;32528;45.712;9.192;2023-06-14T12:46:17;29.30;85.70
28460;DHT22;32528;45.712;9.192;2023-06-14T12:48:18;29.50;84.60
28460;DHT22;32528;45.712;9.192;2023-06-14T12:50:19;29.60;84.00
28460;DHT22;32528;45.712;9.192;2023-06-14T12:52:20;29.50;82.00
28460;DHT22;32528;45.712;9.192;2023-06-14T12:54:20;29.70;85.90
28460;DHT22;32528;45.712;9.192;2023-06-14T12:56:22;29.60;83.60
28460;DHT22;32528;45.712;9.192;2023-06-14T12:58:23;29.60;83.50
28460;DHT22;32528;45.712;9.192;2023-06-14T13:00:25;29.30;84.70
28460;DHT22;32528;45.712;9.192;2023-06-14T13:02:30;29.30;82.80
28460;DHT22;32528;45.712;9.192;2023-06-14T13:04:32;29.30;83.30
28460;DHT22;32528;45.712;9.192;2023-06-14T13:06:33;29.30;83.90